sensor_id;sensor_type;location;lat;lon;timestamp;P1;durP1;ratioP1;P2;durP2;ratioP2
57249;SDS011;43102;52.014;-0.680;2022-08-01T00:00:04;4.00;;;3.60;;
57249;SDS011;43102;52.014;-0.680;2022-08-01T00:01:00;5.20;;;3.80;;
57249;SDS011;43102;52.014;-0.680;2022-08-01T00:02:01;5.20;;;3.80;;
57249;SDS011;43102;52.014;-0.680;2022-08-01T00:03:00;5.20;;;3.80;;
57249;SDS011;43102;52.014;-0.680;2022-08-01T00:04:01;5.20;;;3.80;;
57249;SDS011;43102;52.014;-0.680;2022-08-01T00:05:01;5.20;;;3.80;;
57249;SDS011;43102;52.014;-0.680;2022-08-01T00:06:00;5.20;;;3.80;;
57249;SDS011;43102;52.014;-0.680;2022-08-01T00:07:00;5.20;;;3.80;;
57249;SDS011;43102;52.014;-0.680;2022-08-01T00:08:00;5.20;;;3.80;;
57249;SDS011;43102;52.014;-0.680;2022-08-01T00:09:00;5.20;;;3.80;;
57249;SDS011;43102;52.014;-0.680;2022-08-01T00:10:01;5.20;;;3.80;;
57249;SDS011;43102;52.014;-0.680;2022-08-01T00:11:03;5.20;;;3.80;;
57249;SDS011;43102;52.014;-0.680;2022-08-01T00:12:00;5.20;;;3.80;;
57249;SDS011;43102;52.014;-0.680;2022-08-01T00:13:00;5.20;;;3.80;;
57249;SDS011;43102;52.014;-0.680;2022-08-01T00:14:00;5.20;;;3.80;;
57249;SDS011;43102;52.014;-0.680;2022-08-01T00:15:00;5.20;;;3.80;;
57249;SDS011;43102;52.014;-0.680;2022-08-01T00:16:00;5.20;;;3.80;;
57249;SDS011;43102;52.014;-0.680;2022-08-01T00:17:07;5.20;;;3.80;;
57249;SDS011;43102;52.014;-0.680;2022-08-01T00:18:00;5.20;;;3.80;;
57249;SDS011;43102;52.014;-0.680;2022-08-01T00:19:00;5.20;;;3.80;;
57249;SDS011;43102;52.014;-0.680;2022-08-01T00:20:00;5.20;;;3.80;;
57249;SDS011;43102;52.014;-0.680;2022-08-01T00:21:00;5.20;;;3.80;;
57249;SDS011;43102;52.014;-0.680;2022-08-01T00:22:00;5.20;;;3.80;;
57249;SDS011;43102;52.014;-0.680;2022-08-01T00:23:03;5.20;;;3.80;;
57249;SDS011;43102;52.014;-0.680;2022-08-01T00:24:00;5.20;;;3.80;;
57249;SDS011;43102;52.014;-0.680;2022-08-01T00:25:01;5.20;;;3.80;;
57249;SDS011;43102;52.014;-0.680;2022-08-01T00:26:00;5.20;;;3.80;;
57249;SDS011;43102;52.014;-0.680;2022-08-01T00:27:00;5.20;;;3.80;;
57249;SDS011;43102;52.014;-0.680;2022-08-01T00:28:00;5.20;;;3.80;;
57249;SDS011;43102;52.014;-0.680;2022-08-01T00:29:00;5.20;;;3.80;;
57249;SDS011;43102;52.014;-0.680;2022-08-01T00:30:10;5.20;;;3.80;;
57249;SDS011;43102;52.014;-0.680;2022-08-01T00:31:00;6.20;;;3.90;;
57249;SDS011;43102;52.014;-0.680;2022-08-01T00:32:00;6.20;;;3.90;;
57249;SDS011;43102;52.014;-0.680;2022-08-01T00:33:00;6.20;;;3.90;;
57249;SDS011;43102;52.014;-0.680;2022-08-01T00:34:00;6.20;;;3.90;;
57249;SDS011;43102;52.014;-0.680;2022-08-01T00:35:00;6.20;;;3.90;;
57249;SDS011;43102;52.014;-0.680;2022-08-01T00:36:00;6.20;;;3.90;;
57249;SDS011;43102;52.014;-0.680;2022-08-01T00:37:00;6.20;;;3.90;;
57249;SDS011;43102;52.014;-0.680;2022-08-01T00:38:00;6.20;;;3.90;;
57249;SDS011;43102;52.014;-0.680;2022-08-01T00:39:00;6.20;;;3.90;;
57249;SDS011;43102;52.014;-0.680;2022-08-01T00:40:00;6.20;;;3.90;;
57249;SDS011;43102;52.014;-0.680;2022-08-01T00:41:00;6.20;;;3.90;;
57249;SDS011;43102;52.014;-0.680;2022-08-01T00:42:06;6.20;;;3.90;;
57249;SDS011;43102;52.014;-0.680;2022-08-01T00:43:00;6.20;;;3.90;;
57249;SDS011;43102;52.014;-0.680;2022-08-01T00:44:04;6.20;;;3.90;;
57249;SDS011;43102;52.014;-0.680;2022-08-01T00:45:00;6.20;;;3.90;;
57249;SDS011;43102;52.014;-0.680;2022-08-01T00:46:00;6.20;;;3.90;;
57249;SDS011;43102;52.014;-0.680;2022-08-01T00:47:01;6.20;;;3.90;;
57249;SDS011;43102;52.014;-0.680;2022-08-01T00:48:00;6.20;;;3.90;;
57249;SDS011;43102;52.014;-0.680;2022-08-01T00:49:01;6.20;;;3.90;;
57249;SDS011;43102;52.014;-0.680;2022-08-01T00:50:00;6.20;;;3.90;;
57249;SDS011;43102;52.014;-0.680;2022-08-01T00:51:00;6.20;;;3.90;;
57249;SDS011;43102;52.014;-0.680;2022-08-01T00:52:00;6.20;;;3.90;;
57249;SDS011;43102;52.014;-0.680;2022-08-01T00:53:01;6.20;;;3.90;;
57249;SDS011;43102;52.014;-0.680;2022-08-01T00:54:00;6.20;;;3.90;;
57249;SDS011;43102;52.014;-0.680;2022-08-01T00:55:00;6.20;;;3.90;;
57249;SDS011;43102;52.014;-0.680;2022-08-01T00:56:01;6.20;;;3.90;;
57249;SDS011;43102;52.014;-0.680;2022-08-01T00:57:00;6.20;;;3.90;;
57249;SDS011;43102;52.014;-0.680;2022-08-01T00:58:05;6.20;;;3.90;;
57249;SDS011;43102;52.014;-0.680;2022-08-01T00:59:00;6.20;;;3.90;;
57249;SDS011;43102;52.014;-0.680;2022-08-01T01:00:01;6.20;;;3.90;;
57249;SDS011;43102;52.014;-0.680;2022-08-01T01:01:04;6.00;;;4.50;;
57249;SDS011;43102;52.014;-0.680;2022-08-01T01:02:01;6.00;;;4.50;;
57249;SDS011;43102;52.014;-0.680;2022-08-01T01:03:00;6.00;;;4.50;;
57249;SDS011;43102;52.014;-0.680;2022-08-01T01:04:00;6.00;;;4.50;;
57249;SDS011;43102;52.014;-0.680;2022-08-01T01:05:00;6.00;;;4.50;;
57249;SDS011;43102;52.014;-0.680;2022-08-01T01:06:10;6.00;;;4.50;;
57249;SDS011;43102;52.014;-0.680;2022-08-01T01:07:16;6.00;;;4.50;;
57249;SDS011;43102;52.014;-0.680;2022-08-01T01:08:05;6.00;;;4.50;;
57249;SDS011;43102;52.014;-0.680;2022-08-01T01:11:04;6.00;;;4.50;;
57249;SDS011;43102;52.014;-0.680;2022-08-01T01:12:17;6.00;;;4.50;;
57249;SDS011;43102;52.014;-0.680;2022-08-01T01:14:05;6.00;;;4.50;;
57249;SDS011;43102;52.014;-0.680;2022-08-01T01:15:06;6.00;;;4.50;;
57249;SDS011;43102;52.014;-0.680;2022-08-01T01:16:06;6.00;;;4.50;;
57249;SDS011;43102;52.014;-0.680;2022-08-01T01:17:02;6.00;;;4.50;;
57249;SDS011;43102;52.014;-0.680;2022-08-01T01:18:04;6.00;;;4.50;;
57249;SDS011;43102;52.014;-0.680;2022-08-01T01:19:03;6.00;;;4.50;;
57249;SDS011;43102;52.014;-0.680;2022-08-01T01:20:02;6.00;;;4.50;;
57249;SDS011;43102;52.014;-0.680;2022-08-01T01:21:12;6.00;;;4.50;;
57249;SDS011;43102;52.014;-0.680;2022-08-01T01:22:17;6.00;;;4.50;;
57249;SDS011;43102;52.014;-0.680;2022-08-01T01:26:15;6.00;;;4.50;;
57249;SDS011;43102;52.014;-0.680;2022-08-01T01:27:08;6.00;;;4.50;;
57249;SDS011;43102;52.014;-0.680;2022-08-01T01:29:02;6.00;;;4.50;;
57249;SDS011;43102;52.014;-0.680;2022-08-01T01:30:01;6.00;;;4.50;;
57249;SDS011;43102;52.014;-0.680;2022-08-01T01:31:03;6.70;;;4.80;;
57249;SDS011;43102;52.014;-0.680;2022-08-01T01:32:05;6.70;;;4.80;;
57249;SDS011;43102;52.014;-0.680;2022-08-01T01:33:03;6.70;;;4.80;;
57249;SDS011;43102;52.014;-0.680;2022-08-01T01:34:03;6.70;;;4.80;;
57249;SDS011;43102;52.014;-0.680;2022-08-01T01:35:07;6.70;;;4.80;;
57249;SDS011;43102;52.014;-0.680;2022-08-01T01:36:11;6.70;;;4.80;;
57249;SDS011;43102;52.014;-0.680;2022-08-01T01:37:02;6.70;;;4.80;;
57249;SDS011;43102;52.014;-0.680;2022-08-01T01:38:05;6.70;;;4.80;;
57249;SDS011;43102;52.014;-0.680;2022-08-01T01:39:00;6.70;;;4.80;;
57249;SDS011;43102;52.014;-0.680;2022-08-01T01:40:02;6.70;;;4.80;;
57249;SDS011;43102;52.014;-0.680;2022-08-01T01:41:02;6.70;;;4.80;;
57249;SDS011;43102;52.014;-0.680;2022-08-01T01:42:02;6.70;;;4.80;;
57249;SDS011;43102;52.014;-0.680;2022-08-01T01:43:00;6.70;;;4.80;;
57249;SDS011;43102;52.014;-0.680;2022-08-01T01:44:01;6.70;;;4.80;;
57249;SDS011;43102;52.014;-0.680;2022-08-01T01:45:03;6.70;;;4.80;;
57249;SDS011;43102;52.014;-0.680;2022-08-01T01:46:01;6.70;;;4.80;;
57249;SDS011;43102;52.014;-0.680;2022-08-01T01:47:01;6.70;;;4.80;;
57249;SDS011;43102;52.014;-0.680;2022-08-01T01:48:01;6.70;;;4.80;;
57249;SDS011;43102;52.014;-0.680;2022-08-01T01:49:01;6.70;;;4.80;;
57249;SDS011;43102;52.014;-0.680;2022-08-01T01:50:02;6.70;;;4.80;;
57249;SDS011;43102;52.014;-0.680;2022-08-01T01:51:01;6.70;;;4.80;;
57249;SDS011;43102;52.014;-0.680;2022-08-01T01:52:03;6.70;;;4.80;;
57249;SDS011;43102;52.014;-0.680;2022-08-01T01:53:02;6.70;;;4.80;;
57249;SDS011;43102;52.014;-0.680;2022-08-01T01:54:01;6.70;;;4.80;;
57249;SDS011;43102;52.014;-0.680;2022-08-01T01:55:04;6.70;;;4.80;;
57249;SDS011;43102;52.014;-0.680;2022-08-01T01:56:02;6.70;;;4.80;;
57249;SDS011;43102;52.014;-0.680;2022-08-01T01:57:02;6.70;;;4.80;;
57249;SDS011;43102;52.014;-0.680;2022-08-01T01:58:01;6.70;;;4.80;;
57249;SDS011;43102;52.014;-0.680;2022-08-01T01:59:02;6.70;;;4.80;;
57249;SDS011;43102;52.014;-0.680;2022-08-01T02:00:01;6.70;;;4.80;;
57249;SDS011;43102;52.014;-0.680;2022-08-01T02:01:03;8.40;;;5.30;;
57249;SDS011;43102;52.014;-0.680;2022-08-01T02:02:07;8.40;;;5.30;;
57249;SDS011;43102;52.014;-0.680;2022-08-01T02:03:02;8.40;;;5.30;;
57249;SDS011;43102;52.014;-0.680;2022-08-01T02:04:02;8.40;;;5.30;;
57249;SDS011;43102;52.014;-0.680;2022-08-01T02:05:00;8.40;;;5.30;;
57249;SDS011;43102;52.014;-0.680;2022-08-01T02:06:01;8.40;;;5.30;;
57249;SDS011;43102;52.014;-0.680;2022-08-01T02:07:01;8.40;;;5.30;;
57249;SDS011;43102;52.014;-0.680;2022-08-01T02:08:01;8.40;;;5.30;;
57249;SDS011;43102;52.014;-0.680;2022-08-01T02:09:01;8.40;;;5.30;;
57249;SDS011;43102;52.014;-0.680;2022-08-01T02:10:02;8.40;;;5.30;;
57249;SDS011;43102;52.014;-0.680;2022-08-01T02:11:11;8.40;;;5.30;;
57249;SDS011;43102;52.014;-0.680;2022-08-01T02:12:10;8.40;;;5.30;;
57249;SDS011;43102;52.014;-0.680;2022-08-01T02:13:03;8.40;;;5.30;;
57249;SDS011;43102;52.014;-0.680;2022-08-01T02:14:02;8.40;;;5.30;;
57249;SDS011;43102;52.014;-0.680;2022-08-01T02:15:02;8.40;;;5.30;;
57249;SDS011;43102;52.014;-0.680;2022-08-01T02:16:01;8.40;;;5.30;;
57249;SDS011;43102;52.014;-0.680;2022-08-01T02:17:03;8.40;;;5.30;;
57249;SDS011;43102;52.014;-0.680;2022-08-01T02:18:02;8.40;;;5.30;;
57249;SDS011;43102;52.014;-0.680;2022-08-01T02:19:01;8.40;;;5.30;;
57249;SDS011;43102;52.014;-0.680;2022-08-01T02:20:00;8.40;;;5.30;;
57249;SDS011;43102;52.014;-0.680;2022-08-01T02:21:03;8.40;;;5.30;;
57249;SDS011;43102;52.014;-0.680;2022-08-01T02:22:06;8.40;;;5.30;;
57249;SDS011;43102;52.014;-0.680;2022-08-01T02:23:03;8.40;;;5.30;;
57249;SDS011;43102;52.014;-0.680;2022-08-01T02:24:06;8.40;;;5.30;;
57249;SDS011;43102;52.014;-0.680;2022-08-01T02:25:10;8.40;;;5.30;;
57249;SDS011;43102;52.014;-0.680;2022-08-01T02:26:10;8.40;;;5.30;;
57249;SDS011;43102;52.014;-0.680;2022-08-01T02:27:06;8.40;;;5.30;;
57249;SDS011;43102;52.014;-0.680;2022-08-01T02:28:07;8.40;;;5.30;;
57249;SDS011;43102;52.014;-0.680;2022-08-01T02:29:04;8.40;;;5.30;;
57249;SDS011;43102;52.014;-0.680;2022-08-01T02:30:03;8.40;;;5.30;;
57249;SDS011;43102;52.014;-0.680;2022-08-01T02:31:04;9.10;;;5.90;;
57249;SDS011;43102;52.014;-0.680;2022-08-01T02:32:01;9.10;;;5.90;;
57249;SDS011;43102;52.014;-0.680;2022-08-01T02:33:05;9.10;;;5.90;;
57249;SDS011;43102;52.014;-0.680;2022-08-01T02:34:06;9.10;;;5.90;;
57249;SDS011;43102;52.014;-0.680;2022-08-01T02:35:02;9.10;;;5.90;;
57249;SDS011;43102;52.014;-0.680;2022-08-01T02:36:11;9.10;;;5.90;;
57249;SDS011;43102;52.014;-0.680;2022-08-01T02:37:01;9.10;;;5.90;;
57249;SDS011;43102;52.014;-0.680;2022-08-01T02:38:01;9.10;;;5.90;;
57249;SDS011;43102;52.014;-0.680;2022-08-01T02:39:06;9.10;;;5.90;;
57249;SDS011;43102;52.014;-0.680;2022-08-01T02:40:01;9.10;;;5.90;;
57249;SDS011;43102;52.014;-0.680;2022-08-01T02:41:05;9.10;;;5.90;;
57249;SDS011;43102;52.014;-0.680;2022-08-01T02:42:04;9.10;;;5.90;;
57249;SDS011;43102;52.014;-0.680;2022-08-01T02:43:02;9.10;;;5.90;;
57249;SDS011;43102;52.014;-0.680;2022-08-01T02:44:03;9.10;;;5.90;;
57249;SDS011;43102;52.014;-0.680;2022-08-01T02:45:02;9.10;;;5.90;;
57249;SDS011;43102;52.014;-0.680;2022-08-01T02:46:03;9.10;;;5.90;;
57249;SDS011;43102;52.014;-0.680;2022-08-01T02:47:02;9.10;;;5.90;;
57249;SDS011;43102;52.014;-0.680;2022-08-01T02:48:07;9.10;;;5.90;;
57249;SDS011;43102;52.014;-0.680;2022-08-01T02:49:03;9.10;;;5.90;;
57249;SDS011;43102;52.014;-0.680;2022-08-01T02:50:00;9.10;;;5.90;;
57249;SDS011;43102;52.014;-0.680;2022-08-01T02:51:01;9.10;;;5.90;;
57249;SDS011;43102;52.014;-0.680;2022-08-01T02:52:05;9.10;;;5.90;;
57249;SDS011;43102;52.014;-0.680;2022-08-01T02:53:01;9.10;;;5.90;;
57249;SDS011;43102;52.014;-0.680;2022-08-01T02:54:01;9.10;;;5.90;;
57249;SDS011;43102;52.014;-0.680;2022-08-01T02:55:01;9.10;;;5.90;;
57249;SDS011;43102;52.014;-0.680;2022-08-01T02:56:01;9.10;;;5.90;;
57249;SDS011;43102;52.014;-0.680;2022-08-01T02:57:03;9.10;;;5.90;;
57249;SDS011;43102;52.014;-0.680;2022-08-01T02:58:01;9.10;;;5.90;;
57249;SDS011;43102;52.014;-0.680;2022-08-01T02:59:07;9.10;;;5.90;;
57249;SDS011;43102;52.014;-0.680;2022-08-01T03:00:01;9.10;;;5.90;;
57249;SDS011;43102;52.014;-0.680;2022-08-01T03:01:03;9.10;;;5.50;;
57249;SDS011;43102;52.014;-0.680;2022-08-01T03:02:04;9.10;;;5.50;;
57249;SDS011;43102;52.014;-0.680;2022-08-01T03:03:01;9.10;;;5.50;;
57249;SDS011;43102;52.014;-0.680;2022-08-01T03:04:01;9.10;;;5.50;;
57249;SDS011;43102;52.014;-0.680;2022-08-01T03:05:01;9.10;;;5.50;;
57249;SDS011;43102;52.014;-0.680;2022-08-01T03:06:02;9.10;;;5.50;;
57249;SDS011;43102;52.014;-0.680;2022-08-01T03:07:02;9.10;;;5.50;;
57249;SDS011;43102;52.014;-0.680;2022-08-01T03:08:04;9.10;;;5.50;;
57249;SDS011;43102;52.014;-0.680;2022-08-01T03:09:02;9.10;;;5.50;;
57249;SDS011;43102;52.014;-0.680;2022-08-01T03:10:02;9.10;;;5.50;;
57249;SDS011;43102;52.014;-0.680;2022-08-01T03:11:01;9.10;;;5.50;;
57249;SDS011;43102;52.014;-0.680;2022-08-01T03:12:04;9.10;;;5.50;;
57249;SDS011;43102;52.014;-0.680;2022-08-01T03:13:02;9.10;;;5.50;;
57249;SDS011;43102;52.014;-0.680;2022-08-01T03:14:03;9.10;;;5.50;;
57249;SDS011;43102;52.014;-0.680;2022-08-01T03:15:02;9.10;;;5.50;;
57249;SDS011;43102;52.014;-0.680;2022-08-01T03:16:02;9.10;;;5.50;;
57249;SDS011;43102;52.014;-0.680;2022-08-01T03:17:01;9.10;;;5.50;;
57249;SDS011;43102;52.014;-0.680;2022-08-01T03:18:02;9.10;;;5.50;;
57249;SDS011;43102;52.014;-0.680;2022-08-01T03:19:01;9.10;;;5.50;;
57249;SDS011;43102;52.014;-0.680;2022-08-01T03:20:03;9.10;;;5.50;;
57249;SDS011;43102;52.014;-0.680;2022-08-01T03:21:02;9.10;;;5.50;;
57249;SDS011;43102;52.014;-0.680;2022-08-01T03:22:03;9.10;;;5.50;;
57249;SDS011;43102;52.014;-0.680;2022-08-01T03:23:04;9.10;;;5.50;;
57249;SDS011;43102;52.014;-0.680;2022-08-01T03:24:01;9.10;;;5.50;;
57249;SDS011;43102;52.014;-0.680;2022-08-01T03:25:02;9.10;;;5.50;;
57249;SDS011;43102;52.014;-0.680;2022-08-01T03:26:01;9.10;;;5.50;;
57249;SDS011;43102;52.014;-0.680;2022-08-01T03:27:01;9.10;;;5.50;;
57249;SDS011;43102;52.014;-0.680;2022-08-01T03:28:03;9.10;;;5.50;;
57249;SDS011;43102;52.014;-0.680;2022-08-01T03:29:06;9.10;;;5.50;;
57249;SDS011;43102;52.014;-0.680;2022-08-01T03:30:03;9.10;;;5.50;;
57249;SDS011;43102;52.014;-0.680;2022-08-01T03:31:01;7.90;;;5.50;;
57249;SDS011;43102;52.014;-0.680;2022-08-01T03:32:01;7.90;;;5.50;;
57249;SDS011;43102;52.014;-0.680;2022-08-01T03:33:00;7.90;;;5.50;;
57249;SDS011;43102;52.014;-0.680;2022-08-01T03:34:06;7.90;;;5.50;;
57249;SDS011;43102;52.014;-0.680;2022-08-01T03:35:00;7.90;;;5.50;;
57249;SDS011;43102;52.014;-0.680;2022-08-01T03:36:02;7.90;;;5.50;;
57249;SDS011;43102;52.014;-0.680;2022-08-01T03:37:11;7.90;;;5.50;;
57249;SDS011;43102;52.014;-0.680;2022-08-01T03:38:11;7.90;;;5.50;;
57249;SDS011;43102;52.014;-0.680;2022-08-01T03:39:03;7.90;;;5.50;;
57249;SDS011;43102;52.014;-0.680;2022-08-01T03:41:08;7.90;;;5.50;;
57249;SDS011;43102;52.014;-0.680;2022-08-01T03:42:07;7.90;;;5.50;;
57249;SDS011;43102;52.014;-0.680;2022-08-01T03:43:05;7.90;;;5.50;;
57249;SDS011;43102;52.014;-0.680;2022-08-01T03:44:05;7.90;;;5.50;;
57249;SDS011;43102;52.014;-0.680;2022-08-01T03:45:04;7.90;;;5.50;;
57249;SDS011;43102;52.014;-0.680;2022-08-01T03:46:05;7.90;;;5.50;;
57249;SDS011;43102;52.014;-0.680;2022-08-01T03:47:04;7.90;;;5.50;;
57249;SDS011;43102;52.014;-0.680;2022-08-01T03:48:02;7.90;;;5.50;;
57249;SDS011;43102;52.014;-0.680;2022-08-01T03:49:11;7.90;;;5.50;;
57249;SDS011;43102;52.014;-0.680;2022-08-01T03:50:03;7.90;;;5.50;;
57249;SDS011;43102;52.014;-0.680;2022-08-01T03:51:00;7.90;;;5.50;;
57249;SDS011;43102;52.014;-0.680;2022-08-01T03:52:03;7.90;;;5.50;;
57249;SDS011;43102;52.014;-0.680;2022-08-01T03:53:02;7.90;;;5.50;;
57249;SDS011;43102;52.014;-0.680;2022-08-01T03:54:01;7.90;;;5.50;;
57249;SDS011;43102;52.014;-0.680;2022-08-01T03:55:05;7.90;;;5.50;;
57249;SDS011;43102;52.014;-0.680;2022-08-01T03:56:02;7.90;;;5.50;;
57249;SDS011;43102;52.014;-0.680;2022-08-01T03:57:01;7.90;;;5.50;;
57249;SDS011;43102;52.014;-0.680;2022-08-01T03:58:00;7.90;;;5.50;;
57249;SDS011;43102;52.014;-0.680;2022-08-01T03:59:01;7.90;;;5.50;;
57249;SDS011;43102;52.014;-0.680;2022-08-01T04:00:00;7.90;;;5.50;;
57249;SDS011;43102;52.014;-0.680;2022-08-01T04:01:00;8.10;;;5.70;;
57249;SDS011;43102;52.014;-0.680;2022-08-01T04:02:00;8.10;;;5.70;;
57249;SDS011;43102;52.014;-0.680;2022-08-01T04:03:00;8.10;;;5.70;;
57249;SDS011;43102;52.014;-0.680;2022-08-01T04:04:01;8.10;;;5.70;;
57249;SDS011;43102;52.014;-0.680;2022-08-01T04:05:00;8.10;;;5.70;;
57249;SDS011;43102;52.014;-0.680;2022-08-01T04:06:03;8.10;;;5.70;;
57249;SDS011;43102;52.014;-0.680;2022-08-01T04:07:20;8.10;;;5.70;;
57249;SDS011;43102;52.014;-0.680;2022-08-01T04:08:02;8.10;;;5.70;;
57249;SDS011;43102;52.014;-0.680;2022-08-01T04:09:00;8.10;;;5.70;;
57249;SDS011;43102;52.014;-0.680;2022-08-01T04:10:00;8.10;;;5.70;;
57249;SDS011;43102;52.014;-0.680;2022-08-01T04:11:00;8.10;;;5.70;;
57249;SDS011;43102;52.014;-0.680;2022-08-01T04:12:00;8.10;;;5.70;;
57249;SDS011;43102;52.014;-0.680;2022-08-01T04:13:00;8.10;;;5.70;;
57249;SDS011;43102;52.014;-0.680;2022-08-01T04:14:00;8.10;;;5.70;;
57249;SDS011;43102;52.014;-0.680;2022-08-01T04:15:00;8.10;;;5.70;;
57249;SDS011;43102;52.014;-0.680;2022-08-01T04:16:00;8.10;;;5.70;;
57249;SDS011;43102;52.014;-0.680;2022-08-01T04:17:00;8.10;;;5.70;;
57249;SDS011;43102;52.014;-0.680;2022-08-01T04:18:00;8.10;;;5.70;;
57249;SDS011;43102;52.014;-0.680;2022-08-01T04:19:01;8.10;;;5.70;;
57249;SDS011;43102;52.014;-0.680;2022-08-01T04:20:00;8.10;;;5.70;;
57249;SDS011;43102;52.014;-0.680;2022-08-01T04:21:00;8.10;;;5.70;;
57249;SDS011;43102;52.014;-0.680;2022-08-01T04:22:02;8.10;;;5.70;;
57249;SDS011;43102;52.014;-0.680;2022-08-01T04:23:00;8.10;;;5.70;;
57249;SDS011;43102;52.014;-0.680;2022-08-01T04:24:05;8.10;;;5.70;;
57249;SDS011;43102;52.014;-0.680;2022-08-01T04:25:04;8.10;;;5.70;;
57249;SDS011;43102;52.014;-0.680;2022-08-01T04:26:03;8.10;;;5.70;;
57249;SDS011;43102;52.014;-0.680;2022-08-01T04:27:01;8.10;;;5.70;;
57249;SDS011;43102;52.014;-0.680;2022-08-01T04:28:03;8.10;;;5.70;;
57249;SDS011;43102;52.014;-0.680;2022-08-01T04:29:02;8.10;;;5.70;;
57249;SDS011;43102;52.014;-0.680;2022-08-01T04:30:00;8.10;;;5.70;;
57249;SDS011;43102;52.014;-0.680;2022-08-01T04:31:02;7.90;;;5.90;;
57249;SDS011;43102;52.014;-0.680;2022-08-01T04:32:01;7.90;;;5.90;;
57249;SDS011;43102;52.014;-0.680;2022-08-01T04:33:01;7.90;;;5.90;;
57249;SDS011;43102;52.014;-0.680;2022-08-01T04:34:02;7.90;;;5.90;;
57249;SDS011;43102;52.014;-0.680;2022-08-01T04:35:13;7.90;;;5.90;;
57249;SDS011;43102;52.014;-0.680;2022-08-01T04:36:05;7.90;;;5.90;;
57249;SDS011;43102;52.014;-0.680;2022-08-01T04:37:00;7.90;;;5.90;;
57249;SDS011;43102;52.014;-0.680;2022-08-01T04:38:01;7.90;;;5.90;;
57249;SDS011;43102;52.014;-0.680;2022-08-01T04:39:01;7.90;;;5.90;;
57249;SDS011;43102;52.014;-0.680;2022-08-01T04:40:00;7.90;;;5.90;;
57249;SDS011;43102;52.014;-0.680;2022-08-01T04:41:10;7.90;;;5.90;;
57249;SDS011;43102;52.014;-0.680;2022-08-01T04:42:03;7.90;;;5.90;;
57249;SDS011;43102;52.014;-0.680;2022-08-01T04:43:00;7.90;;;5.90;;
57249;SDS011;43102;52.014;-0.680;2022-08-01T04:44:02;7.90;;;5.90;;
57249;SDS011;43102;52.014;-0.680;2022-08-01T04:45:01;7.90;;;5.90;;
57249;SDS011;43102;52.014;-0.680;2022-08-01T04:46:03;7.90;;;5.90;;
57249;SDS011;43102;52.014;-0.680;2022-08-01T04:47:03;7.90;;;5.90;;
57249;SDS011;43102;52.014;-0.680;2022-08-01T04:48:00;7.90;;;5.90;;
57249;SDS011;43102;52.014;-0.680;2022-08-01T04:49:01;7.90;;;5.90;;
57249;SDS011;43102;52.014;-0.680;2022-08-01T04:50:00;7.90;;;5.90;;
57249;SDS011;43102;52.014;-0.680;2022-08-01T04:51:00;7.90;;;5.90;;
57249;SDS011;43102;52.014;-0.680;2022-08-01T04:52:00;7.90;;;5.90;;
57249;SDS011;43102;52.014;-0.680;2022-08-01T04:53:02;7.90;;;5.90;;
57249;SDS011;43102;52.014;-0.680;2022-08-01T04:54:01;7.90;;;5.90;;
57249;SDS011;43102;52.014;-0.680;2022-08-01T04:55:00;7.90;;;5.90;;
57249;SDS011;43102;52.014;-0.680;2022-08-01T04:56:00;7.90;;;5.90;;
57249;SDS011;43102;52.014;-0.680;2022-08-01T04:57:00;7.90;;;5.90;;
57249;SDS011;43102;52.014;-0.680;2022-08-01T04:58:01;7.90;;;5.90;;
57249;SDS011;43102;52.014;-0.680;2022-08-01T04:59:10;7.90;;;5.90;;
57249;SDS011;43102;52.014;-0.680;2022-08-01T05:00:03;7.90;;;5.90;;
57249;SDS011;43102;52.014;-0.680;2022-08-01T05:01:00;6.60;;;5.00;;
57249;SDS011;43102;52.014;-0.680;2022-08-01T05:02:00;6.60;;;5.00;;
57249;SDS011;43102;52.014;-0.680;2022-08-01T05:03:00;6.60;;;5.00;;
57249;SDS011;43102;52.014;-0.680;2022-08-01T05:04:01;6.60;;;5.00;;
57249;SDS011;43102;52.014;-0.680;2022-08-01T05:05:00;6.60;;;5.00;;
57249;SDS011;43102;52.014;-0.680;2022-08-01T05:06:00;6.60;;;5.00;;
57249;SDS011;43102;52.014;-0.680;2022-08-01T05:07:00;6.60;;;5.00;;
57249;SDS011;43102;52.014;-0.680;2022-08-01T05:08:00;6.60;;;5.00;;
57249;SDS011;43102;52.014;-0.680;2022-08-01T05:09:00;6.60;;;5.00;;
57249;SDS011;43102;52.014;-0.680;2022-08-01T05:10:01;6.60;;;5.00;;
57249;SDS011;43102;52.014;-0.680;2022-08-01T05:11:01;6.60;;;5.00;;
57249;SDS011;43102;52.014;-0.680;2022-08-01T05:12:02;6.60;;;5.00;;
57249;SDS011;43102;52.014;-0.680;2022-08-01T05:13:00;6.60;;;5.00;;
57249;SDS011;43102;52.014;-0.680;2022-08-01T05:14:00;6.60;;;5.00;;
57249;SDS011;43102;52.014;-0.680;2022-08-01T05:15:01;6.60;;;5.00;;
57249;SDS011;43102;52.014;-0.680;2022-08-01T05:16:03;6.60;;;5.00;;
57249;SDS011;43102;52.014;-0.680;2022-08-01T05:17:04;6.60;;;5.00;;
57249;SDS011;43102;52.014;-0.680;2022-08-01T05:18:00;6.60;;;5.00;;
57249;SDS011;43102;52.014;-0.680;2022-08-01T05:19:02;6.60;;;5.00;;
57249;SDS011;43102;52.014;-0.680;2022-08-01T05:20:00;6.60;;;5.00;;
57249;SDS011;43102;52.014;-0.680;2022-08-01T05:21:01;6.60;;;5.00;;
57249;SDS011;43102;52.014;-0.680;2022-08-01T05:22:05;6.60;;;5.00;;
57249;SDS011;43102;52.014;-0.680;2022-08-01T05:23:00;6.60;;;5.00;;
57249;SDS011;43102;52.014;-0.680;2022-08-01T05:24:02;6.60;;;5.00;;
57249;SDS011;43102;52.014;-0.680;2022-08-01T05:25:00;6.60;;;5.00;;
57249;SDS011;43102;52.014;-0.680;2022-08-01T05:26:04;6.60;;;5.00;;
57249;SDS011;43102;52.014;-0.680;2022-08-01T05:27:01;6.60;;;5.00;;
57249;SDS011;43102;52.014;-0.680;2022-08-01T05:28:00;6.60;;;5.00;;
57249;SDS011;43102;52.014;-0.680;2022-08-01T05:29:00;6.60;;;5.00;;
57249;SDS011;43102;52.014;-0.680;2022-08-01T05:30:00;6.60;;;5.00;;
57249;SDS011;43102;52.014;-0.680;2022-08-01T05:31:00;3.60;;;2.20;;
57249;SDS011;43102;52.014;-0.680;2022-08-01T05:32:00;3.60;;;2.20;;
57249;SDS011;43102;52.014;-0.680;2022-08-01T05:33:00;3.60;;;2.20;;
57249;SDS011;43102;52.014;-0.680;2022-08-01T05:34:01;3.60;;;2.20;;
57249;SDS011;43102;52.014;-0.680;2022-08-01T05:35:00;3.60;;;2.20;;
57249;SDS011;43102;52.014;-0.680;2022-08-01T05:36:00;3.60;;;2.20;;
57249;SDS011;43102;52.014;-0.680;2022-08-01T05:37:00;3.60;;;2.20;;
57249;SDS011;43102;52.014;-0.680;2022-08-01T05:38:00;3.60;;;2.20;;
57249;SDS011;43102;52.014;-0.680;2022-08-01T05:39:00;3.60;;;2.20;;
57249;SDS011;43102;52.014;-0.680;2022-08-01T05:40:00;3.60;;;2.20;;
57249;SDS011;43102;52.014;-0.680;2022-08-01T05:41:00;3.60;;;2.20;;
57249;SDS011;43102;52.014;-0.680;2022-08-01T05:42:00;3.60;;;2.20;;
57249;SDS011;43102;52.014;-0.680;2022-08-01T05:43:00;3.60;;;2.20;;
57249;SDS011;43102;52.014;-0.680;2022-08-01T05:44:00;3.60;;;2.20;;
57249;SDS011;43102;52.014;-0.680;2022-08-01T05:45:00;3.60;;;2.20;;
57249;SDS011;43102;52.014;-0.680;2022-08-01T05:46:01;3.60;;;2.20;;
57249;SDS011;43102;52.014;-0.680;2022-08-01T05:47:00;3.60;;;2.20;;
57249;SDS011;43102;52.014;-0.680;2022-08-01T05:48:00;3.60;;;2.20;;
57249;SDS011;43102;52.014;-0.680;2022-08-01T05:49:01;3.60;;;2.20;;
57249;SDS011;43102;52.014;-0.680;2022-08-01T05:50:00;3.60;;;2.20;;
57249;SDS011;43102;52.014;-0.680;2022-08-01T05:51:00;3.60;;;2.20;;
57249;SDS011;43102;52.014;-0.680;2022-08-01T05:52:01;3.60;;;2.20;;
57249;SDS011;43102;52.014;-0.680;2022-08-01T05:53:00;3.60;;;2.20;;
57249;SDS011;43102;52.014;-0.680;2022-08-01T05:54:00;3.60;;;2.20;;
57249;SDS011;43102;52.014;-0.680;2022-08-01T05:55:00;3.60;;;2.20;;
57249;SDS011;43102;52.014;-0.680;2022-08-01T05:56:01;3.60;;;2.20;;
57249;SDS011;43102;52.014;-0.680;2022-08-01T05:57:01;3.60;;;2.20;;
57249;SDS011;43102;52.014;-0.680;2022-08-01T05:58:00;3.60;;;2.20;;
57249;SDS011;43102;52.014;-0.680;2022-08-01T05:59:00;3.60;;;2.20;;
57249;SDS011;43102;52.014;-0.680;2022-08-01T06:00:00;3.60;;;2.20;;
57249;SDS011;43102;52.014;-0.680;2022-08-01T06:01:00;5.90;;;3.90;;
57249;SDS011;43102;52.014;-0.680;2022-08-01T06:02:00;5.90;;;3.90;;
57249;SDS011;43102;52.014;-0.680;2022-08-01T06:03:00;5.90;;;3.90;;